Terminal Aerodrome Forecast
Issued by NWS

Current Version | Previous Version | Text Only | Print | Product List | Glossary On
Versions: 1 2 3 4 5 6 7 8 9 10 11 12 13 14 15 16 17 18 19 20 21 22 23 24 25 26
820
FTUS44 KLIX 221605 AAC
TAFGPT
TAF AMD
KGPT 221605Z 2216/2312 33015G25KT P6SM -RA SCT025 BKN040 OVC070
     FM222000 26021KT P6SM SKC
     FM222300 29021KT P6SM SKC
     FM230800 31009KT P6SM SKC=

USA.gov is the U.S. government's official web portal to all federal, state and local government web resources and services.